sensor_id;sensor_type;location;lat;lon;timestamp;P1;durP1;ratioP1;P2;durP2;ratioP2
45686;SDS011;31399;51.176;7.776;2022-08-21T00:01:34;13.73;;;6.32;;
45686;SDS011;31399;51.176;7.776;2022-08-21T00:04:07;15.98;;;6.70;;
45686;SDS011;31399;51.176;7.776;2022-08-21T00:06:35;11.85;;;5.47;;
45686;SDS011;31399;51.176;7.776;2022-08-21T00:09:02;11.35;;;5.88;;
45686;SDS011;31399;51.176;7.776;2022-08-21T00:11:32;12.40;;;6.07;;
45686;SDS011;31399;51.176;7.776;2022-08-21T00:14:01;16.65;;;6.75;;
45686;SDS011;31399;51.176;7.776;2022-08-21T00:16:29;11.60;;;5.72;;
45686;SDS011;31399;51.176;7.776;2022-08-21T00:18:55;10.20;;;5.53;;
45686;SDS011;31399;51.176;7.776;2022-08-21T00:21:22;10.82;;;5.82;;
45686;SDS011;31399;51.176;7.776;2022-08-21T00:23:48;20.60;;;6.20;;
45686;SDS011;31399;51.176;7.776;2022-08-21T00:26:15;14.85;;;6.30;;
45686;SDS011;31399;51.176;7.776;2022-08-21T00:28:42;16.55;;;6.05;;
45686;SDS011;31399;51.176;7.776;2022-08-21T00:31:09;11.63;;;6.28;;
45686;SDS011;31399;51.176;7.776;2022-08-21T00:33:35;10.63;;;5.65;;
45686;SDS011;31399;51.176;7.776;2022-08-21T00:36:02;12.10;;;5.45;;
45686;SDS011;31399;51.176;7.776;2022-08-21T00:38:29;11.98;;;5.65;;
45686;SDS011;31399;51.176;7.776;2022-08-21T00:40:57;13.15;;;5.72;;
45686;SDS011;31399;51.176;7.776;2022-08-21T00:43:28;6.82;;;4.80;;
45686;SDS011;31399;51.176;7.776;2022-08-21T00:45:57;12.35;;;5.30;;
45686;SDS011;31399;51.176;7.776;2022-08-21T00:48:24;11.32;;;5.15;;
45686;SDS011;31399;51.176;7.776;2022-08-21T00:53:21;15.32;;;5.50;;
45686;SDS011;31399;51.176;7.776;2022-08-21T00:55:48;17.17;;;5.72;;
45686;SDS011;31399;51.176;7.776;2022-08-21T00:58:15;14.98;;;5.72;;
45686;SDS011;31399;51.176;7.776;2022-08-21T01:00:44;14.57;;;5.85;;
45686;SDS011;31399;51.176;7.776;2022-08-21T01:03:15;9.00;;;5.65;;
45686;SDS011;31399;51.176;7.776;2022-08-21T01:05:48;9.13;;;4.65;;
45686;SDS011;31399;51.176;7.776;2022-08-21T01:08:16;12.82;;;5.20;;
45686;SDS011;31399;51.176;7.776;2022-08-21T01:10:43;13.57;;;5.80;;
45686;SDS011;31399;51.176;7.776;2022-08-21T01:13:11;8.07;;;4.15;;
45686;SDS011;31399;51.176;7.776;2022-08-21T01:15:42;10.95;;;5.70;;
45686;SDS011;31399;51.176;7.776;2022-08-21T01:18:11;12.35;;;4.38;;
45686;SDS011;31399;51.176;7.776;2022-08-21T01:20:40;9.88;;;4.25;;
45686;SDS011;31399;51.176;7.776;2022-08-21T01:23:11;12.52;;;4.93;;
45686;SDS011;31399;51.176;7.776;2022-08-21T01:25:38;9.38;;;5.20;;
45686;SDS011;31399;51.176;7.776;2022-08-21T01:28:07;12.27;;;4.30;;
45686;SDS011;31399;51.176;7.776;2022-08-21T01:30:38;7.78;;;4.45;;
45686;SDS011;31399;51.176;7.776;2022-08-21T01:33:05;8.80;;;4.25;;
45686;SDS011;31399;51.176;7.776;2022-08-21T01:35:32;9.38;;;3.60;;
45686;SDS011;31399;51.176;7.776;2022-08-21T01:37:59;13.60;;;5.05;;
45686;SDS011;31399;51.176;7.776;2022-08-21T01:40:25;16.50;;;5.68;;
45686;SDS011;31399;51.176;7.776;2022-08-21T01:42:52;11.88;;;4.88;;
45686;SDS011;31399;51.176;7.776;2022-08-21T01:45:19;13.73;;;5.68;;
45686;SDS011;31399;51.176;7.776;2022-08-21T01:47:46;12.50;;;5.70;;
45686;SDS011;31399;51.176;7.776;2022-08-21T01:50:14;8.18;;;4.88;;
45686;SDS011;31399;51.176;7.776;2022-08-21T01:52:42;12.45;;;4.68;;
45686;SDS011;31399;51.176;7.776;2022-08-21T01:55:09;7.72;;;4.03;;
45686;SDS011;31399;51.176;7.776;2022-08-21T01:57:37;11.68;;;4.53;;
45686;SDS011;31399;51.176;7.776;2022-08-21T02:00:05;5.75;;;3.78;;
45686;SDS011;31399;51.176;7.776;2022-08-21T02:02:34;12.52;;;3.97;;
45686;SDS011;31399;51.176;7.776;2022-08-21T02:05:01;9.88;;;4.47;;
45686;SDS011;31399;51.176;7.776;2022-08-21T02:07:27;7.60;;;4.20;;
45686;SDS011;31399;51.176;7.776;2022-08-21T02:09:54;10.90;;;4.25;;
45686;SDS011;31399;51.176;7.776;2022-08-21T02:12:21;6.68;;;3.67;;
45686;SDS011;31399;51.176;7.776;2022-08-21T02:14:47;6.32;;;3.75;;
45686;SDS011;31399;51.176;7.776;2022-08-21T02:17:14;5.80;;;3.58;;
45686;SDS011;31399;51.176;7.776;2022-08-21T02:19:40;11.10;;;4.03;;
45686;SDS011;31399;51.176;7.776;2022-08-21T02:22:10;8.35;;;3.63;;
45686;SDS011;31399;51.176;7.776;2022-08-21T02:24:37;6.28;;;3.20;;
45686;SDS011;31399;51.176;7.776;2022-08-21T02:27:21;8.60;;;3.88;;
45686;SDS011;31399;51.176;7.776;2022-08-21T02:29:53;5.93;;;3.20;;
45686;SDS011;31399;51.176;7.776;2022-08-21T02:32:21;7.10;;;3.17;;
45686;SDS011;31399;51.176;7.776;2022-08-21T02:34:48;8.90;;;3.72;;
45686;SDS011;31399;51.176;7.776;2022-08-21T02:37:15;8.07;;;3.63;;
45686;SDS011;31399;51.176;7.776;2022-08-21T02:39:41;8.07;;;3.50;;
45686;SDS011;31399;51.176;7.776;2022-08-21T02:42:08;11.48;;;4.40;;
45686;SDS011;31399;51.176;7.776;2022-08-21T02:44:35;9.68;;;3.55;;
45686;SDS011;31399;51.176;7.776;2022-08-21T02:47:01;7.82;;;2.75;;
45686;SDS011;31399;51.176;7.776;2022-08-21T02:49:28;5.57;;;2.90;;
45686;SDS011;31399;51.176;7.776;2022-08-21T02:51:54;6.65;;;3.40;;
45686;SDS011;31399;51.176;7.776;2022-08-21T02:54:21;9.93;;;3.70;;
45686;SDS011;31399;51.176;7.776;2022-08-21T02:56:47;7.50;;;3.47;;
45686;SDS011;31399;51.176;7.776;2022-08-21T02:59:14;8.50;;;3.55;;
45686;SDS011;31399;51.176;7.776;2022-08-21T03:01:41;7.45;;;3.72;;
45686;SDS011;31399;51.176;7.776;2022-08-21T03:04:07;9.88;;;3.85;;
45686;SDS011;31399;51.176;7.776;2022-08-21T03:06:34;12.55;;;3.72;;
45686;SDS011;31399;51.176;7.776;2022-08-21T03:09:00;5.03;;;2.83;;
45686;SDS011;31399;51.176;7.776;2022-08-21T03:11:27;5.55;;;2.85;;
45686;SDS011;31399;51.176;7.776;2022-08-21T03:13:54;6.72;;;3.10;;
45686;SDS011;31399;51.176;7.776;2022-08-21T03:16:21;8.40;;;3.28;;
45686;SDS011;31399;51.176;7.776;2022-08-21T03:18:47;6.57;;;3.35;;
45686;SDS011;31399;51.176;7.776;2022-08-21T03:21:14;7.05;;;3.20;;
45686;SDS011;31399;51.176;7.776;2022-08-21T03:23:40;5.75;;;3.22;;
45686;SDS011;31399;51.176;7.776;2022-08-21T03:26:09;8.20;;;2.95;;
45686;SDS011;31399;51.176;7.776;2022-08-21T03:28:37;10.13;;;3.70;;
45686;SDS011;31399;51.176;7.776;2022-08-21T03:31:03;7.68;;;3.17;;
45686;SDS011;31399;51.176;7.776;2022-08-21T03:33:31;3.60;;;2.80;;
45686;SDS011;31399;51.176;7.776;2022-08-21T03:36:03;9.32;;;3.20;;
45686;SDS011;31399;51.176;7.776;2022-08-21T03:38:32;4.82;;;2.90;;
45686;SDS011;31399;51.176;7.776;2022-08-21T03:40:59;9.20;;;3.90;;
45686;SDS011;31399;51.176;7.776;2022-08-21T03:43:27;7.95;;;3.80;;
45686;SDS011;31399;51.176;7.776;2022-08-21T03:45:57;12.00;;;3.40;;
45686;SDS011;31399;51.176;7.776;2022-08-21T03:48:25;8.07;;;3.60;;
45686;SDS011;31399;51.176;7.776;2022-08-21T03:50:52;8.77;;;3.60;;
45686;SDS011;31399;51.176;7.776;2022-08-21T03:53:19;9.02;;;4.00;;
45686;SDS011;31399;51.176;7.776;2022-08-21T03:55:46;5.18;;;3.60;;
45686;SDS011;31399;51.176;7.776;2022-08-21T03:58:17;10.63;;;3.53;;
45686;SDS011;31399;51.176;7.776;2022-08-21T04:00:46;6.47;;;3.28;;
45686;SDS011;31399;51.176;7.776;2022-08-21T04:03:14;8.90;;;3.25;;
45686;SDS011;31399;51.176;7.776;2022-08-21T04:05:40;7.90;;;3.25;;
45686;SDS011;31399;51.176;7.776;2022-08-21T04:08:07;6.50;;;2.83;;
45686;SDS011;31399;51.176;7.776;2022-08-21T04:10:36;7.20;;;3.00;;
45686;SDS011;31399;51.176;7.776;2022-08-21T04:13:04;8.82;;;2.33;;
45686;SDS011;31399;51.176;7.776;2022-08-21T04:15:31;4.78;;;2.25;;
45686;SDS011;31399;51.176;7.776;2022-08-21T04:17:58;4.97;;;2.78;;
45686;SDS011;31399;51.176;7.776;2022-08-21T04:20:25;9.32;;;3.67;;
45686;SDS011;31399;51.176;7.776;2022-08-21T04:22:52;9.68;;;3.20;;
45686;SDS011;31399;51.176;7.776;2022-08-21T04:25:20;11.07;;;4.65;;
45686;SDS011;31399;51.176;7.776;2022-08-21T04:27:47;9.18;;;4.20;;
45686;SDS011;31399;51.176;7.776;2022-08-21T04:30:14;5.78;;;4.25;;
45686;SDS011;31399;51.176;7.776;2022-08-21T04:32:42;6.85;;;3.40;;
45686;SDS011;31399;51.176;7.776;2022-08-21T04:35:10;6.03;;;3.25;;
45686;SDS011;31399;51.176;7.776;2022-08-21T04:37:37;5.20;;;2.65;;
45686;SDS011;31399;51.176;7.776;2022-08-21T04:40:07;7.55;;;3.28;;
45686;SDS011;31399;51.176;7.776;2022-08-21T04:47:49;5.70;;;3.33;;
45686;SDS011;31399;51.176;7.776;2022-08-21T04:50:19;11.07;;;3.33;;
45686;SDS011;31399;51.176;7.776;2022-08-21T04:52:48;5.13;;;3.20;;
45686;SDS011;31399;51.176;7.776;2022-08-21T04:55:16;6.80;;;3.10;;
45686;SDS011;31399;51.176;7.776;2022-08-21T04:57:43;5.88;;;3.03;;
45686;SDS011;31399;51.176;7.776;2022-08-21T05:02:41;9.68;;;3.88;;
45686;SDS011;31399;51.176;7.776;2022-08-21T05:05:08;6.03;;;3.17;;
45686;SDS011;31399;51.176;7.776;2022-08-21T05:07:34;7.90;;;3.40;;
45686;SDS011;31399;51.176;7.776;2022-08-21T05:10:08;5.93;;;2.90;;
45686;SDS011;31399;51.176;7.776;2022-08-21T05:12:37;6.28;;;3.40;;
45686;SDS011;31399;51.176;7.776;2022-08-21T05:15:05;8.05;;;3.30;;
45686;SDS011;31399;51.176;7.776;2022-08-21T05:17:38;11.40;;;4.10;;
45686;SDS011;31399;51.176;7.776;2022-08-21T05:20:05;7.80;;;3.00;;
45686;SDS011;31399;51.176;7.776;2022-08-21T05:22:32;8.13;;;3.10;;
45686;SDS011;31399;51.176;7.776;2022-08-21T05:24:58;7.45;;;4.43;;
45686;SDS011;31399;51.176;7.776;2022-08-21T05:27:25;6.70;;;2.95;;
45686;SDS011;31399;51.176;7.776;2022-08-21T05:29:53;5.25;;;2.83;;
45686;SDS011;31399;51.176;7.776;2022-08-21T05:32:19;10.35;;;3.08;;
45686;SDS011;31399;51.176;7.776;2022-08-21T05:34:47;7.00;;;3.22;;
45686;SDS011;31399;51.176;7.776;2022-08-21T05:37:13;7.75;;;3.33;;
45686;SDS011;31399;51.176;7.776;2022-08-21T05:39:40;7.03;;;3.10;;
45686;SDS011;31399;51.176;7.776;2022-08-21T05:42:26;12.32;;;3.75;;
45686;SDS011;31399;51.176;7.776;2022-08-21T05:44:54;7.60;;;3.35;;
45686;SDS011;31399;51.176;7.776;2022-08-21T05:47:20;8.73;;;3.10;;
45686;SDS011;31399;51.176;7.776;2022-08-21T05:49:47;7.78;;;3.47;;
45686;SDS011;31399;51.176;7.776;2022-08-21T05:52:17;5.88;;;2.83;;
45686;SDS011;31399;51.176;7.776;2022-08-21T05:54:45;6.40;;;2.83;;
45686;SDS011;31399;51.176;7.776;2022-08-21T05:57:13;7.05;;;3.47;;
45686;SDS011;31399;51.176;7.776;2022-08-21T05:59:40;11.68;;;3.47;;
45686;SDS011;31399;51.176;7.776;2022-08-21T06:02:06;6.30;;;3.35;;
45686;SDS011;31399;51.176;7.776;2022-08-21T06:04:38;5.53;;;3.65;;
45686;SDS011;31399;51.176;7.776;2022-08-21T06:07:05;8.88;;;3.30;;
45686;SDS011;31399;51.176;7.776;2022-08-21T06:09:32;10.02;;;3.47;;
45686;SDS011;31399;51.176;7.776;2022-08-21T06:12:03;9.35;;;4.13;;
45686;SDS011;31399;51.176;7.776;2022-08-21T06:14:36;6.60;;;3.45;;
45686;SDS011;31399;51.176;7.776;2022-08-21T06:17:04;7.75;;;3.22;;
45686;SDS011;31399;51.176;7.776;2022-08-21T06:19:32;9.55;;;3.35;;
45686;SDS011;31399;51.176;7.776;2022-08-21T06:21:58;7.47;;;2.70;;
45686;SDS011;31399;51.176;7.776;2022-08-21T06:24:25;10.27;;;3.13;;
45686;SDS011;31399;51.176;7.776;2022-08-21T06:26:53;7.82;;;3.25;;
45686;SDS011;31399;51.176;7.776;2022-08-21T06:29:20;8.55;;;3.45;;
45686;SDS011;31399;51.176;7.776;2022-08-21T06:31:47;7.60;;;3.38;;
45686;SDS011;31399;51.176;7.776;2022-08-21T06:34:15;9.00;;;3.05;;
45686;SDS011;31399;51.176;7.776;2022-08-21T06:36:42;8.63;;;3.40;;
45686;SDS011;31399;51.176;7.776;2022-08-21T06:39:08;8.20;;;3.10;;
45686;SDS011;31399;51.176;7.776;2022-08-21T06:41:50;6.60;;;2.80;;
45686;SDS011;31399;51.176;7.776;2022-08-21T06:44:18;4.70;;;2.67;;
45686;SDS011;31399;51.176;7.776;2022-08-21T06:46:45;6.60;;;2.85;;
45686;SDS011;31399;51.176;7.776;2022-08-21T06:49:13;10.27;;;3.05;;
45686;SDS011;31399;51.176;7.776;2022-08-21T06:51:46;6.95;;;2.95;;
45686;SDS011;31399;51.176;7.776;2022-08-21T06:54:13;8.98;;;2.95;;
45686;SDS011;31399;51.176;7.776;2022-08-21T06:56:40;4.35;;;2.75;;
45686;SDS011;31399;51.176;7.776;2022-08-21T06:59:06;4.43;;;2.40;;
45686;SDS011;31399;51.176;7.776;2022-08-21T07:01:33;4.53;;;2.22;;
45686;SDS011;31399;51.176;7.776;2022-08-21T07:04:00;6.78;;;2.60;;
45686;SDS011;31399;51.176;7.776;2022-08-21T07:06:26;5.28;;;2.22;;
45686;SDS011;31399;51.176;7.776;2022-08-21T07:08:54;3.90;;;2.58;;
45686;SDS011;31399;51.176;7.776;2022-08-21T07:11:24;9.98;;;2.55;;
45686;SDS011;31399;51.176;7.776;2022-08-21T07:13:51;6.10;;;2.80;;
45686;SDS011;31399;51.176;7.776;2022-08-21T07:16:20;8.18;;;3.25;;
45686;SDS011;31399;51.176;7.776;2022-08-21T07:18:48;7.93;;;3.10;;
45686;SDS011;31399;51.176;7.776;2022-08-21T07:21:16;6.43;;;2.53;;
45686;SDS011;31399;51.176;7.776;2022-08-21T07:23:44;4.93;;;2.28;;
45686;SDS011;31399;51.176;7.776;2022-08-21T07:26:13;8.02;;;2.50;;
45686;SDS011;31399;51.176;7.776;2022-08-21T07:28:42;7.70;;;2.70;;
45686;SDS011;31399;51.176;7.776;2022-08-21T07:31:10;10.50;;;2.65;;
45686;SDS011;31399;51.176;7.776;2022-08-21T07:33:40;10.15;;;2.40;;
45686;SDS011;31399;51.176;7.776;2022-08-21T07:36:07;8.32;;;3.05;;
45686;SDS011;31399;51.176;7.776;2022-08-21T07:38:34;6.20;;;1.85;;
45686;SDS011;31399;51.176;7.776;2022-08-21T07:41:02;6.75;;;2.58;;
45686;SDS011;31399;51.176;7.776;2022-08-21T07:43:33;6.28;;;1.73;;
45686;SDS011;31399;51.176;7.776;2022-08-21T07:46:00;6.28;;;1.52;;
45686;SDS011;31399;51.176;7.776;2022-08-21T07:48:26;6.03;;;1.90;;
45686;SDS011;31399;51.176;7.776;2022-08-21T07:50:53;6.35;;;1.27;;
45686;SDS011;31399;51.176;7.776;2022-08-21T07:53:21;9.27;;;1.48;;
45686;SDS011;31399;51.176;7.776;2022-08-21T07:55:48;3.30;;;1.23;;
45686;SDS011;31399;51.176;7.776;2022-08-21T07:58:14;7.30;;;1.65;;
45686;SDS011;31399;51.176;7.776;2022-08-21T08:00:41;7.35;;;1.50;;
45686;SDS011;31399;51.176;7.776;2022-08-21T08:03:07;6.82;;;1.92;;
45686;SDS011;31399;51.176;7.776;2022-08-21T08:05:35;4.82;;;1.60;;
45686;SDS011;31399;51.176;7.776;2022-08-21T08:08:03;6.15;;;2.10;;
45686;SDS011;31399;51.176;7.776;2022-08-21T08:10:30;10.50;;;2.15;;
45686;SDS011;31399;51.176;7.776;2022-08-21T08:12:56;6.35;;;1.48;;
45686;SDS011;31399;51.176;7.776;2022-08-21T08:15:24;7.20;;;2.03;;
45686;SDS011;31399;51.176;7.776;2022-08-21T08:17:53;8.25;;;1.95;;
45686;SDS011;31399;51.176;7.776;2022-08-21T08:20:21;5.22;;;1.10;;
45686;SDS011;31399;51.176;7.776;2022-08-21T08:22:49;3.95;;;1.38;;
45686;SDS011;31399;51.176;7.776;2022-08-21T08:25:16;5.78;;;1.25;;
45686;SDS011;31399;51.176;7.776;2022-08-21T08:27:44;6.05;;;1.25;;
45686;SDS011;31399;51.176;7.776;2022-08-21T08:30:11;6.30;;;1.10;;
45686;SDS011;31399;51.176;7.776;2022-08-21T08:32:40;6.90;;;1.42;;
45686;SDS011;31399;51.176;7.776;2022-08-21T08:35:07;5.75;;;1.40;;
45686;SDS011;31399;51.176;7.776;2022-08-21T08:37:34;9.57;;;1.50;;
45686;SDS011;31399;51.176;7.776;2022-08-21T08:40:09;4.63;;;1.00;;
45686;SDS011;31399;51.176;7.776;2022-08-21T08:42:37;4.43;;;1.35;;
45686;SDS011;31399;51.176;7.776;2022-08-21T08:47:35;3.47;;;1.35;;
45686;SDS011;31399;51.176;7.776;2022-08-21T08:50:24;4.03;;;1.30;;
45686;SDS011;31399;51.176;7.776;2022-08-21T08:53:06;5.03;;;1.67;;
45686;SDS011;31399;51.176;7.776;2022-08-21T08:55:38;6.10;;;1.63;;
45686;SDS011;31399;51.176;7.776;2022-08-21T08:58:06;5.68;;;1.58;;
45686;SDS011;31399;51.176;7.776;2022-08-21T09:00:35;3.88;;;1.33;;
45686;SDS011;31399;51.176;7.776;2022-08-21T09:03:04;4.53;;;1.48;;
45686;SDS011;31399;51.176;7.776;2022-08-21T09:06:35;5.65;;;1.38;;
45686;SDS011;31399;51.176;7.776;2022-08-21T09:11:20;3.55;;;1.33;;
45686;SDS011;31399;51.176;7.776;2022-08-21T09:13:59;7.38;;;1.60;;
45686;SDS011;31399;51.176;7.776;2022-08-21T09:25:26;4.70;;;1.20;;
45686;SDS011;31399;51.176;7.776;2022-08-21T09:27:54;7.80;;;1.08;;
45686;SDS011;31399;51.176;7.776;2022-08-21T09:30:29;8.95;;;1.52;;
45686;SDS011;31399;51.176;7.776;2022-08-21T09:32:58;3.75;;;1.27;;
45686;SDS011;31399;51.176;7.776;2022-08-21T09:35:26;5.95;;;1.13;;
45686;SDS011;31399;51.176;7.776;2022-08-21T09:38:03;8.93;;;1.00;;
45686;SDS011;31399;51.176;7.776;2022-08-21T09:40:36;6.68;;;1.38;;
45686;SDS011;31399;51.176;7.776;2022-08-21T09:43:28;5.93;;;1.73;;
45686;SDS011;31399;51.176;7.776;2022-08-21T09:46:19;5.13;;;1.65;;
45686;SDS011;31399;51.176;7.776;2022-08-21T09:48:49;9.00;;;1.23;;
45686;SDS011;31399;51.176;7.776;2022-08-21T09:51:18;8.07;;;1.50;;
45686;SDS011;31399;51.176;7.776;2022-08-21T09:54:08;8.48;;;1.23;;
45686;SDS011;31399;51.176;7.776;2022-08-21T09:56:57;4.20;;;1.30;;
45686;SDS011;31399;51.176;7.776;2022-08-21T09:59:44;4.30;;;1.50;;
45686;SDS011;31399;51.176;7.776;2022-08-21T10:05:02;4.72;;;1.40;;
45686;SDS011;31399;51.176;7.776;2022-08-21T10:07:50;4.50;;;1.80;;
45686;SDS011;31399;51.176;7.776;2022-08-21T10:15:52;6.88;;;1.42;;
45686;SDS011;31399;51.176;7.776;2022-08-21T10:18:38;4.85;;;1.30;;
45686;SDS011;31399;51.176;7.776;2022-08-21T10:28:52;4.32;;;1.40;;
45686;SDS011;31399;51.176;7.776;2022-08-21T10:31:42;3.88;;;1.38;;
45686;SDS011;31399;51.176;7.776;2022-08-21T10:36:57;4.45;;;1.42;;
45686;SDS011;31399;51.176;7.776;2022-08-21T10:40:02;6.13;;;1.48;;
45686;SDS011;31399;51.176;7.776;2022-08-21T10:43:24;2.10;;;0.90;;
45686;SDS011;31399;51.176;7.776;2022-08-21T10:45:42;6.40;;;1.48;;
45686;SDS011;31399;51.176;7.776;2022-08-21T10:48:21;3.97;;;1.20;;
45686;SDS011;31399;51.176;7.776;2022-08-21T10:50:52;3.55;;;1.05;;
45686;SDS011;31399;51.176;7.776;2022-08-21T10:55:56;6.60;;;1.85;;
45686;SDS011;31399;51.176;7.776;2022-08-21T10:58:31;3.85;;;1.50;;
45686;SDS011;31399;51.176;7.776;2022-08-21T11:01:13;6.65;;;1.35;;
45686;SDS011;31399;51.176;7.776;2022-08-21T11:03:45;2.45;;;0.82;;
45686;SDS011;31399;51.176;7.776;2022-08-21T11:06:20;5.82;;;1.10;;
45686;SDS011;31399;51.176;7.776;2022-08-21T11:08:50;4.13;;;1.63;;
45686;SDS011;31399;51.176;7.776;2022-08-21T11:11:22;4.80;;;1.08;;
45686;SDS011;31399;51.176;7.776;2022-08-21T11:16:42;4.10;;;1.60;;
45686;SDS011;31399;51.176;7.776;2022-08-21T11:19:31;3.80;;;1.20;;
45686;SDS011;31399;51.176;7.776;2022-08-21T11:22:07;5.05;;;1.15;;
45686;SDS011;31399;51.176;7.776;2022-08-21T11:30:00;4.82;;;1.50;;
45686;SDS011;31399;51.176;7.776;2022-08-21T11:34:58;4.65;;;1.08;;
45686;SDS011;31399;51.176;7.776;2022-08-21T11:37:40;3.13;;;1.13;;
45686;SDS011;31399;51.176;7.776;2022-08-21T11:50:42;2.40;;;0.90;;
45686;SDS011;31399;51.176;7.776;2022-08-21T11:58:25;2.47;;;0.93;;
45686;SDS011;31399;51.176;7.776;2022-08-21T12:00:56;2.58;;;1.25;;
45686;SDS011;31399;51.176;7.776;2022-08-21T12:11:06;3.47;;;0.88;;
45686;SDS011;31399;51.176;7.776;2022-08-21T12:13:37;5.50;;;1.02;;
45686;SDS011;31399;51.176;7.776;2022-08-21T12:16:30;4.72;;;0.90;;
45686;SDS011;31399;51.176;7.776;2022-08-21T12:21:29;4.43;;;0.73;;
45686;SDS011;31399;51.176;7.776;2022-08-21T12:31:54;3.47;;;0.65;;
45686;SDS011;31399;51.176;7.776;2022-08-21T12:34:22;4.47;;;1.20;;
45686;SDS011;31399;51.176;7.776;2022-08-21T12:36:56;0.85;;;0.60;;
45686;SDS011;31399;51.176;7.776;2022-08-21T12:39:26;2.13;;;0.60;;
45686;SDS011;31399;51.176;7.776;2022-08-21T12:44:37;2.67;;;0.63;;
45686;SDS011;31399;51.176;7.776;2022-08-21T12:47:27;2.63;;;0.90;;
45686;SDS011;31399;51.176;7.776;2022-08-21T12:50:00;1.52;;;0.80;;
45686;SDS011;31399;51.176;7.776;2022-08-21T12:52:35;3.03;;;0.98;;
45686;SDS011;31399;51.176;7.776;2022-08-21T12:55:15;2.25;;;0.93;;
45686;SDS011;31399;51.176;7.776;2022-08-21T12:57:55;1.17;;;0.60;;
45686;SDS011;31399;51.176;7.776;2022-08-21T13:00:25;0.80;;;0.43;;
45686;SDS011;31399;51.176;7.776;2022-08-21T13:02:53;1.90;;;0.60;;
45686;SDS011;31399;51.176;7.776;2022-08-21T13:05:29;1.00;;;0.60;;
45686;SDS011;31399;51.176;7.776;2022-08-21T13:08:03;2.90;;;1.03;;
45686;SDS011;31399;51.176;7.776;2022-08-21T13:10:31;1.77;;;0.73;;
45686;SDS011;31399;51.176;7.776;2022-08-21T13:13:00;2.97;;;0.80;;
45686;SDS011;31399;51.176;7.776;2022-08-21T13:15:38;3.13;;;0.70;;
45686;SDS011;31399;51.176;7.776;2022-08-21T13:18:19;1.45;;;0.60;;
45686;SDS011;31399;51.176;7.776;2022-08-21T13:20:48;2.47;;;0.70;;
45686;SDS011;31399;51.176;7.776;2022-08-21T13:23:32;2.50;;;0.63;;
45686;SDS011;31399;51.176;7.776;2022-08-21T13:25:59;4.30;;;0.95;;
45686;SDS011;31399;51.176;7.776;2022-08-21T13:28:31;2.50;;;0.77;;
45686;SDS011;31399;51.176;7.776;2022-08-21T13:30:59;2.22;;;0.68;;
45686;SDS011;31399;51.176;7.776;2022-08-21T13:33:27;3.22;;;0.50;;
45686;SDS011;31399;51.176;7.776;2022-08-21T13:36:04;3.08;;;1.08;;
45686;SDS011;31399;51.176;7.776;2022-08-21T13:38:36;3.53;;;0.63;;
45686;SDS011;31399;51.176;7.776;2022-08-21T13:41:05;0.80;;;0.30;;
45686;SDS011;31399;51.176;7.776;2022-08-21T13:43:43;2.45;;;0.65;;
45686;SDS011;31399;51.176;7.776;2022-08-21T13:46:11;1.02;;;0.47;;
45686;SDS011;31399;51.176;7.776;2022-08-21T13:48:39;2.92;;;0.90;;
45686;SDS011;31399;51.176;7.776;2022-08-21T13:51:06;3.25;;;0.68;;
45686;SDS011;31399;51.176;7.776;2022-08-21T13:53:44;1.77;;;0.55;;
45686;SDS011;31399;51.176;7.776;2022-08-21T13:56:26;1.50;;;0.80;;
45686;SDS011;31399;51.176;7.776;2022-08-21T13:59:08;2.45;;;0.55;;
45686;SDS011;31399;51.176;7.776;2022-08-21T14:04:33;3.92;;;0.60;;
45686;SDS011;31399;51.176;7.776;2022-08-21T14:07:00;4.90;;;0.70;;
45686;SDS011;31399;51.176;7.776;2022-08-21T14:09:34;1.48;;;0.85;;
45686;SDS011;31399;51.176;7.776;2022-08-21T14:15:12;3.67;;;0.55;;
45686;SDS011;31399;51.176;7.776;2022-08-21T14:17:40;2.25;;;0.30;;
45686;SDS011;31399;51.176;7.776;2022-08-21T14:20:09;1.83;;;0.32;;
45686;SDS011;31399;51.176;7.776;2022-08-21T14:22:41;2.65;;;0.40;;
45686;SDS011;31399;51.176;7.776;2022-08-21T14:27:58;1.30;;;0.32;;
45686;SDS011;31399;51.176;7.776;2022-08-21T14:30:53;3.00;;;0.35;;
45686;SDS011;31399;51.176;7.776;2022-08-21T14:33:31;1.98;;;0.32;;
45686;SDS011;31399;51.176;7.776;2022-08-21T14:35:58;2.20;;;0.60;;
45686;SDS011;31399;51.176;7.776;2022-08-21T14:38:26;1.55;;;0.40;;
45686;SDS011;31399;51.176;7.776;2022-08-21T14:40:57;2.50;;;0.60;;
45686;SDS011;31399;51.176;7.776;2022-08-21T14:43:27;1.60;;;0.25;;
45686;SDS011;31399;51.176;7.776;2022-08-21T14:45:54;1.25;;;0.30;;
45686;SDS011;31399;51.176;7.776;2022-08-21T14:48:21;1.70;;;0.30;;
45686;SDS011;31399;51.176;7.776;2022-08-21T14:50:48;1.13;;;0.43;;
45686;SDS011;31399;51.176;7.776;2022-08-21T14:53:14;3.88;;;0.38;;
45686;SDS011;31399;51.176;7.776;2022-08-21T14:55:41;2.03;;;0.25;;
45686;SDS011;31399;51.176;7.776;2022-08-21T14:58:26;1.30;;;0.30;;
45686;SDS011;31399;51.176;7.776;2022-08-21T15:00:53;3.75;;;0.30;;
45686;SDS011;31399;51.176;7.776;2022-08-21T15:03:20;1.98;;;0.40;;
45686;SDS011;31399;51.176;7.776;2022-08-21T15:05:50;1.85;;;0.30;;
45686;SDS011;31399;51.176;7.776;2022-08-21T15:08:17;4.07;;;0.50;;
45686;SDS011;31399;51.176;7.776;2022-08-21T15:10:44;1.42;;;0.30;;
45686;SDS011;31399;51.176;7.776;2022-08-21T15:13:31;2.63;;;0.43;;
45686;SDS011;31399;51.176;7.776;2022-08-21T15:15:58;0.75;;;0.30;;
45686;SDS011;31399;51.176;7.776;2022-08-21T15:18:25;1.83;;;0.35;;
45686;SDS011;31399;51.176;7.776;2022-08-21T15:20:53;1.15;;;0.32;;
45686;SDS011;31399;51.176;7.776;2022-08-21T15:23:19;3.38;;;0.38;;
45686;SDS011;31399;51.176;7.776;2022-08-21T15:25:47;1.45;;;0.30;;
45686;SDS011;31399;51.176;7.776;2022-08-21T15:28:15;1.75;;;0.50;;
45686;SDS011;31399;51.176;7.776;2022-08-21T15:30:43;1.65;;;0.60;;
45686;SDS011;31399;51.176;7.776;2022-08-21T15:33:10;2.65;;;0.60;;
45686;SDS011;31399;51.176;7.776;2022-08-21T15:35:37;1.67;;;0.55;;
45686;SDS011;31399;51.176;7.776;2022-08-21T15:38:06;3.47;;;0.52;;
45686;SDS011;31399;51.176;7.776;2022-08-21T15:40:37;2.20;;;0.50;;
45686;SDS011;31399;51.176;7.776;2022-08-21T15:43:04;2.30;;;0.65;;
45686;SDS011;31399;51.176;7.776;2022-08-21T15:45:32;3.65;;;0.60;;
45686;SDS011;31399;51.176;7.776;2022-08-21T15:47:59;1.52;;;0.63;;
45686;SDS011;31399;51.176;7.776;2022-08-21T15:50:26;2.45;;;0.40;;
45686;SDS011;31399;51.176;7.776;2022-08-21T15:52:54;2.65;;;0.50;;
45686;SDS011;31399;51.176;7.776;2022-08-21T15:55:22;2.05;;;0.40;;
45686;SDS011;31399;51.176;7.776;2022-08-21T15:57:49;2.97;;;0.40;;
45686;SDS011;31399;51.176;7.776;2022-08-21T16:00:23;3.78;;;0.65;;
45686;SDS011;31399;51.176;7.776;2022-08-21T16:02:51;3.88;;;0.50;;
45686;SDS011;31399;51.176;7.776;2022-08-21T16:05:20;2.08;;;0.50;;
45686;SDS011;31399;51.176;7.776;2022-08-21T16:07:48;2.22;;;0.63;;
45686;SDS011;31399;51.176;7.776;2022-08-21T16:10:16;3.90;;;0.60;;
45686;SDS011;31399;51.176;7.776;2022-08-21T16:12:46;2.45;;;0.60;;
45686;SDS011;31399;51.176;7.776;2022-08-21T16:15:15;2.03;;;0.38;;
45686;SDS011;31399;51.176;7.776;2022-08-21T16:17:46;7.50;;;0.40;;
45686;SDS011;31399;51.176;7.776;2022-08-21T16:20:21;1.15;;;0.40;;
45686;SDS011;31399;51.176;7.776;2022-08-21T16:22:51;2.50;;;0.40;;
45686;SDS011;31399;51.176;7.776;2022-08-21T16:25:18;2.40;;;0.40;;
45686;SDS011;31399;51.176;7.776;2022-08-21T16:27:46;5.18;;;0.65;;
45686;SDS011;31399;51.176;7.776;2022-08-21T16:30:17;1.98;;;0.40;;
45686;SDS011;31399;51.176;7.776;2022-08-21T16:32:44;3.13;;;0.30;;
45686;SDS011;31399;51.176;7.776;2022-08-21T16:35:12;2.45;;;0.40;;
45686;SDS011;31399;51.176;7.776;2022-08-21T16:37:40;3.75;;;0.30;;
45686;SDS011;31399;51.176;7.776;2022-08-21T16:40:07;2.90;;;0.30;;
45686;SDS011;31399;51.176;7.776;2022-08-21T16:42:36;1.35;;;0.32;;
45686;SDS011;31399;51.176;7.776;2022-08-21T16:45:04;3.97;;;0.43;;